Time;durP1;ratioP1;P1;durP2;ratioP2;P2;SDS_P1;SDS_P2;PMS_P1;PMS_P2;Temp;Humidity;BMP_temperature;BMP_pressure;BME280_temperature;BME280_humidity;BME280_pressure;Samples;Min_cycle;Max_cycle;Signal;HPM_P1;HPM_P2
2023/02/03 00:00:47;;;;;;;15.55;2.80;;;;;;;9.67;100.00;102121.56;5012712;28;20491;-82
2023/02/03 00:03:13;;;;;;;17.83;2.72;;;;;;;9.74;100.00;102121.00;4980603;28;20041;-82
2023/02/03 00:05:39;;;;;;;12.52;2.63;;;;;;;9.65;100.00;102111.94;5013928;28;20026;-81
2023/02/03 00:08:06;;;;;;;19.58;2.47;;;;;;;9.41;100.00;102088.97;5012618;28;20477;-82
2023/02/03 00:10:33;;;;;;;18.45;2.88;;;;;;;9.73;100.00;102135.44;5012653;28;20353;-80
2023/02/03 00:12:59;;;;;;;17.55;3.33;;;;;;;9.71;100.00;102127.50;4996165;28;20030;-81
2023/02/03 00:15:25;;;;;;;12.93;2.03;;;;;;;9.74;100.00;102132.63;4996623;28;20060;-80
2023/02/03 00:17:51;;;;;;;10.15;1.65;;;;;;;9.77;100.00;102142.25;5012705;28;20057;-80
2023/02/03 00:20:18;;;;;;;25.58;3.80;;;;;;;9.75;100.00;102145.06;5012885;28;20464;-81
2023/02/03 00:22:43;;;;;;;12.38;2.33;;;;;;;9.77;100.00;102142.25;4980150;28;20062;-81
2023/02/03 00:25:09;;;;;;;18.20;2.78;;;;;;;9.82;100.00;102140.00;4980244;28;20113;-80
2023/02/03 00:27:35;;;;;;;19.00;2.10;;;;;;;9.75;100.00;102139.69;5012718;28;20038;-81
2023/02/03 00:30:01;;;;;;;23.60;4.05;;;;;;;9.83;100.00;102150.59;5011998;28;20121;-81
2023/02/03 00:32:26;;;;;;;34.22;3.08;;;;;;;9.87;100.00;102164.59;4996071;28;20022;-81
2023/02/03 00:34:52;;;;;;;16.38;2.55;;;;;;;9.82;100.00;102150.75;5012213;28;20097;-81
2023/02/03 00:37:21;;;;;;;16.13;2.63;;;;;;;9.83;100.00;102153.28;5012492;28;20032;-81
2023/02/03 00:39:48;;;;;;;8.93;1.92;;;;;;;9.89;100.00;102163.47;4996380;28;20099;-81
2023/02/03 00:42:13;;;;;;;13.48;2.15;;;;;;;9.74;100.00;102127.25;4980184;28;20046;-81
2023/02/03 00:44:39;;;;;;;13.68;3.33;;;;;;;9.85;100.00;102161.22;5012593;28;20037;-80
2023/02/03 00:47:05;;;;;;;19.58;2.90;;;;;;;9.81;100.00;102152.56;4980227;28;20034;-80
2023/02/03 00:49:30;;;;;;;22.52;2.95;;;;;;;9.81;100.00;102157.09;5012321;28;20468;-80
2023/02/03 00:51:56;;;;;;;17.55;2.47;;;;;;;9.82;100.00;102156.13;5012212;28;20032;-82
2023/02/03 00:54:22;;;;;;;25.67;2.35;;;;;;;9.91;100.00;102172.25;5011885;28;20452;-81
2023/02/03 00:56:47;;;;;;;19.75;3.47;;;;;;;9.89;100.00;102181.44;5012470;28;20061;-81
2023/02/03 00:59:13;;;;;;;12.95;2.20;;;;;;;9.94;100.00;102178.34;5013110;28;20030;-81
2023/02/03 01:01:38;;;;;;;23.23;2.75;;;;;;;9.93;100.00;102182.88;5016077;28;20026;-81
2023/02/03 01:04:07;;;;;;;14.40;2.13;;;;;;;9.93;100.00;102188.25;5017235;28;20037;-81
2023/02/03 01:06:33;;;;;;;17.40;2.63;;;;;;;10.00;100.00;102199.28;4999714;28;20026;-81
2023/02/03 01:09:01;;;;;;;17.17;2.38;;;;;;;10.04;100.00;102209.63;5017015;28;20451;-82
2023/02/03 01:11:27;;;;;;;17.95;2.95;;;;;;;10.02;100.00;102211.59;5016052;28;20034;-81
2023/02/03 01:13:55;;;;;;;15.55;2.58;;;;;;;10.01;100.00;102206.38;4999790;28;20036;-81
2023/02/03 01:16:21;;;;;;;12.40;2.65;;;;;;;9.99;100.00;102203.81;4999590;28;20038;-81
2023/02/03 01:18:48;;;;;;;16.13;2.72;;;;;;;10.01;100.00;102220.66;5015983;28;20030;-81
2023/02/03 01:21:22;;;;;;;11.80;3.38;;;;;;;10.01;100.00;102225.19;5016808;28;20030;-81
2023/02/03 01:23:48;;;;;;;23.75;3.00;;;;;;;10.01;100.00;102225.19;5016002;28;20030;-81
2023/02/03 01:26:16;;;;;;;23.77;3.78;;;;;;;9.98;100.00;102229.00;5015747;28;20468;-81
2023/02/03 01:28:42;;;;;;;16.98;3.20;;;;;;;10.00;100.00;102227.03;5015816;28;20116;-81
2023/02/03 01:31:16;;;;;;;14.30;2.45;;;;;;;9.94;100.00;102232.91;5015609;28;20139;-81
2023/02/03 01:33:45;;;;;;;28.10;4.88;;;;;;;9.94;100.00;102229.38;4983159;28;20365;-80
2023/02/03 01:36:12;;;;;;;22.25;2.60;;;;;;;9.88;100.00;102230.78;4999706;28;20030;-80
2023/02/03 01:38:38;;;;;;;20.58;3.03;;;;;;;9.88;100.00;102246.91;4998772;28;20484;-80
2023/02/03 01:41:05;;;;;;;16.45;2.38;;;;;;;9.81;100.00;102246.56;5016821;28;20080;-81
2023/02/03 01:43:40;;;;;;;10.30;2.95;;;;;;;9.82;100.00;102242.94;4982745;28;20434;-80
2023/02/03 01:46:23;;;;;;;22.60;2.80;;;;;;;9.60;100.00;102219.75;5015185;28;20029;-80
2023/02/03 01:48:51;;;;;;;25.45;3.53;;;;;;;9.72;100.00;102242.03;5015389;28;20041;-80
2023/02/03 01:51:16;;;;;;;16.83;2.55;;;;;;;9.68;100.00;102238.75;4998757;28;20041;-80
2023/02/03 01:53:44;;;;;;;15.40;2.20;;;;;;;9.70;100.00;102246.66;4998919;28;20038;-80
2023/02/03 01:56:10;;;;;;;13.13;2.58;;;;;;;9.65;100.00;102241.69;5015150;28;20076;-80
2023/02/03 01:58:39;;;;;;;18.73;2.58;;;;;;;9.72;100.00;102247.41;5015122;28;20471;-80
2023/02/03 02:01:04;;;;;;;15.13;2.25;;;;;;;9.64;100.00;102242.69;5015057;28;20030;-81
2023/02/03 02:04:00;;;;;;;12.95;2.25;;;;;;;9.75;100.00;102254.34;5015135;28;20065;-81
2023/02/03 02:06:26;;;;;;;10.13;1.80;;;;;;;9.69;100.00;102242.28;4990529;28;20041;-81
2023/02/03 02:08:52;;;;;;;15.95;4.25;;;;;;;9.75;100.00;102255.19;4999252;28;20052;-81
2023/02/03 02:11:21;;;;;;;12.40;2.05;;;;;;;9.74;100.00;102250.81;4997407;28;20049;-80
2023/02/03 02:13:50;;;;;;;16.00;3.25;;;;;;;9.76;100.00;102253.34;5014690;28;20121;-80
2023/02/03 02:16:50;;;;;;;20.92;2.55;;;;;;;9.75;100.00;102259.72;5014915;28;20060;-80
2023/02/03 02:19:34;;;;;;;10.57;2.13;;;;;;;9.75;100.00;102254.34;5015633;28;20025;-80
2023/02/03 02:22:22;;;;;;;21.00;3.05;;;;;;;9.77;100.00;102255.06;5014852;28;20069;-81
2023/02/03 02:25:32;;;;;;;8.52;2.17;;;;;;;9.79;100.00;102261.13;5015859;28;20472;-80
2023/02/03 02:28:25;;;;;;;7.72;1.85;;;;;;;9.77;100.00;102258.59;5012998;28;20041;-80
2023/02/03 02:31:12;;;;;;;15.85;3.40;;;;;;;9.80;100.00;102257.47;5014770;28;20125;-81
2023/02/03 02:33:58;;;;;;;21.75;2.22;;;;;;;9.78;100.00;102262.97;5014417;28;20038;-80
2023/02/03 02:36:56;;;;;;;12.00;2.50;;;;;;;9.76;100.00;102253.34;5014436;28;20132;-80
2023/02/03 02:39:35;;;;;;;11.23;1.77;;;;;;;9.80;100.00;102263.69;4998890;28;20392;-81
2023/02/03 02:42:06;;;;;;;21.58;3.25;;;;;;;9.79;100.00;102247.69;5015648;28;20037;-80
2023/02/03 02:44:35;;;;;;;9.70;1.38;;;;;;;9.75;100.00;102248.97;4997903;28;20041;-80
2023/02/03 02:47:06;;;;;;;13.32;2.80;;;;;;;9.78;100.00;102246.84;4998190;28;20146;-80
2023/02/03 02:49:38;;;;;;;15.75;2.72;;;;;;;9.78;100.00;102241.47;5014423;28;20037;-80
2023/02/03 02:52:05;;;;;;;18.15;2.13;;;;;;;9.73;100.00;102237.50;4998316;28;20582;-80
2023/02/03 02:54:32;;;;;;;13.75;2.50;;;;;;;9.64;100.00;102229.25;5014091;28;20087;-80
2023/02/03 02:57:00;;;;;;;16.75;3.05;;;;;;;9.69;100.00;102235.09;4981783;28;20046;-81
2023/02/03 02:59:26;;;;;;;9.88;1.90;;;;;;;9.66;100.00;102238.03;5013526;28;20111;-80
2023/02/03 03:01:51;;;;;;;11.13;1.75;;;;;;;9.68;100.00;102241.44;5030180;28;20069;-80
2023/02/03 03:04:22;;;;;;;23.48;2.22;;;;;;;9.72;100.00;102249.25;5013731;28;20049;-80
2023/02/03 03:06:56;;;;;;;16.17;3.05;;;;;;;9.75;100.00;102262.41;4997502;28;20045;-80
2023/02/03 03:09:25;;;;;;;16.42;1.60;;;;;;;9.74;100.00;102261.56;4982357;28;20056;-80
2023/02/03 03:12:00;;;;;;;20.30;3.80;;;;;;;9.75;100.00;102263.25;4997562;28;20149;-80
2023/02/03 03:14:29;;;;;;;9.82;1.90;;;;;;;9.78;100.00;102262.13;4997104;28;20113;-80
2023/02/03 03:17:05;;;;;;;17.50;2.22;;;;;;;9.81;100.00;102267.22;4997603;28;20029;-80
2023/02/03 03:19:34;;;;;;;17.05;2.47;;;;;;;9.83;100.00;102266.09;5013656;28;20468;-80
2023/02/03 03:22:03;;;;;;;16.42;2.05;;;;;;;9.69;100.00;102240.44;4997028;28;20030;-80
2023/02/03 03:24:33;;;;;;;13.65;1.52;;;;;;;9.90;100.00;102269.97;5013090;28;20149;-81
2023/02/03 03:27:08;;;;;;;13.30;2.42;;;;;;;9.91;100.00;102270.81;4981613;28;20096;-80
2023/02/03 03:29:57;;;;;;;18.83;3.08;;;;;;;9.87;100.00;102267.56;4997142;28;20550;-80
2023/02/03 03:32:23;;;;;;;14.95;1.85;;;;;;;9.67;100.00;102255.00;4981746;28;20044;-80
2023/02/03 03:34:50;;;;;;;12.80;2.28;;;;;;;9.64;100.00;102268.69;5013376;28;20061;-80
2023/02/03 03:37:35;;;;;;;16.50;3.15;;;;;;;9.53;100.00;102283.06;5012957;28;20036;-80
2023/02/03 03:40:11;;;;;;;7.47;1.55;;;;;;;9.40;100.00;102285.94;4996782;28;20089;-81
2023/02/03 03:42:46;;;;;;;9.05;1.95;;;;;;;9.33;100.00;102278.53;4981599;28;20076;-80
2023/02/03 03:45:23;;;;;;;12.05;2.53;;;;;;;9.28;100.00;102275.38;5014197;28;20029;-80
2023/02/03 03:47:50;;;;;;;10.75;2.03;;;;;;;9.19;100.00;102271.66;4996976;28;20041;-80
2023/02/03 03:50:22;;;;;;;18.45;2.53;;;;;;;9.17;100.00;102263.72;5014311;28;20030;-80
2023/02/03 03:52:49;;;;;;;16.65;2.03;;;;;;;9.12;100.00;102262.41;5012402;28;20053;-80
2023/02/03 03:55:15;;;;;;;23.52;3.00;;;;;;;9.11;100.00;102266.94;4996951;28;20053;-80
2023/02/03 03:57:51;;;;;;;15.18;2.28;;;;;;;9.06;100.00;102255.72;5012798;28;20030;-79
2023/02/03 04:00:18;;;;;;;14.38;1.90;;;;;;;9.06;100.00;102255.72;5012663;28;20029;-80
2023/02/03 04:02:45;;;;;;;20.17;2.63;;;;;;;9.03;100.00;102254.16;4996961;28;20040;-81
2023/02/03 04:05:11;;;;;;;22.00;3.50;;;;;;;9.01;100.00;102252.59;4996739;28;20460;-80
2023/02/03 04:07:42;;;;;;;16.35;2.30;;;;;;;8.97;100.00;102245.75;4996369;28;20030;-81
2023/02/03 04:10:25;;;;;;;28.60;2.63;;;;;;;9.01;100.00;102255.25;5012969;28;20480;-80
2023/02/03 04:12:51;;;;;;;14.75;2.42;;;;;;;8.98;100.00;102259.06;4996609;28;20022;-80
2023/02/03 04:15:16;;;;;;;10.63;1.95;;;;;;;8.97;100.00;102257.38;4996352;28;20040;-80
2023/02/03 04:17:42;;;;;;;9.50;2.05;;;;;;;8.97;100.00;102259.16;5012685;28;20119;-80
2023/02/03 04:20:08;;;;;;;11.85;2.47;;;;;;;8.96;100.00;102266.38;5013921;28;20041;-80
2023/02/03 04:22:34;;;;;;;14.18;2.20;;;;;;;8.95;100.00;102269.19;5012688;28;20480;-80
2023/02/03 04:25:00;;;;;;;15.75;2.38;;;;;;;8.90;100.00;102269.56;5013747;28;20044;-80
2023/02/03 04:27:26;;;;;;;11.38;1.95;;;;;;;8.92;100.00;102272.16;5029147;28;20063;-80
2023/02/03 04:29:51;;;;;;;12.82;1.80;;;;;;;8.90;100.00;102268.72;5012699;28;20037;-81
2023/02/03 04:32:18;;;;;;;10.20;2.50;;;;;;;8.88;100.00;102266.16;5012253;28;20065;-81
2023/02/03 04:34:45;;;;;;;7.53;2.17;;;;;;;8.73;100.00;102248.66;5013455;28;20049;-81
2023/02/03 04:37:10;;;;;;;11.60;2.20;;;;;;;8.88;100.00;102282.25;5000075;28;20459;-80
2023/02/03 04:39:36;;;;;;;13.55;2.25;;;;;;;8.79;100.00;102262.44;5016505;28;20050;-81
2023/02/03 04:42:01;;;;;;;8.68;1.75;;;;;;;8.86;100.00;102278.00;5000393;28;20037;-81
2023/02/03 04:44:27;;;;;;;19.42;2.92;;;;;;;8.82;100.00;102273.88;5016590;28;20140;-80
2023/02/03 04:46:53;;;;;;;19.75;2.90;;;;;;;8.85;100.00;102276.31;4983935;28;20030;-80
2023/02/03 04:49:18;;;;;;;16.02;2.20;;;;;;;8.83;100.00;102270.22;5018005;28;20510;-81
2023/02/03 04:51:44;;;;;;;18.60;2.72;;;;;;;8.82;100.00;102274.72;5000279;28;20037;-80
2023/02/03 04:54:10;;;;;;;13.02;2.50;;;;;;;8.75;100.00;102252.91;5015625;28;20025;-82
2023/02/03 04:56:37;;;;;;;13.02;2.72;;;;;;;8.83;100.00;102260.31;5017260;28;20434;-81
2023/02/03 04:59:03;;;;;;;8.30;1.35;;;;;;;8.88;100.00;102258.13;5000243;28;20493;-81
2023/02/03 05:01:28;;;;;;;10.98;1.88;;;;;;;8.85;100.00;102249.50;5016004;28;20105;-80
2023/02/03 05:03:54;;;;;;;21.00;2.58;;;;;;;8.91;100.00;102257.00;5017421;28;20029;-80
2023/02/03 05:06:24;;;;;;;25.00;3.35;;;;;;;8.91;100.00;102257.00;5017034;28;20053;-80
2023/02/03 05:08:51;;;;;;;20.08;3.13;;;;;;;8.85;100.00;102250.34;4999984;28;20036;-79
2023/02/03 05:11:17;;;;;;;13.43;2.38;;;;;;;8.84;100.00;102247.75;5016269;28;20522;-81
2023/02/03 05:13:43;;;;;;;21.23;3.20;;;;;;;8.82;100.00;102255.97;5016688;28;20037;-80
2023/02/03 05:16:08;;;;;;;14.25;2.10;;;;;;;8.80;100.00;102256.06;5016958;28;20037;-80
2023/02/03 05:18:34;;;;;;;12.38;2.50;;;;;;;8.83;100.00;102254.13;5015676;28;20029;-81
2023/02/03 05:20:59;;;;;;;12.82;2.25;;;;;;;8.88;100.00;102263.47;5015619;28;20040;-81
2023/02/03 05:23:25;;;;;;;9.80;2.15;;;;;;;8.77;100.00;102236.72;5015718;28;20056;-80
2023/02/03 05:25:51;;;;;;;14.30;2.90;;;;;;;8.92;100.00;102248.00;5015848;28;20026;-80
2023/02/03 05:28:16;;;;;;;11.60;2.50;;;;;;;9.02;100.00;102259.63;5016984;28;20065;-81
2023/02/03 05:30:42;;;;;;;13.75;2.20;;;;;;;9.05;100.00;102251.34;5016367;28;20026;-80
2023/02/03 05:33:11;;;;;;;18.95;2.78;;;;;;;9.06;100.00;102261.09;5015631;28;20103;-81
2023/02/03 05:35:37;;;;;;;21.38;2.95;;;;;;;9.02;100.00;102251.59;4999494;28;20473;-81
2023/02/03 05:38:02;;;;;;;25.58;3.17;;;;;;;8.97;100.00;102245.75;5015782;28;20037;-79
2023/02/03 05:43:12;;;;;;;15.88;1.88;;;;;;;8.89;100.00;102258.97;5016738;28;20084;-80
2023/02/03 05:45:38;;;;;;;10.82;2.42;;;;;;;8.77;100.00;102250.13;5014901;28;20729;-80
2023/02/03 05:48:04;;;;;;;14.48;2.53;;;;;;;8.78;100.00;102262.53;4999325;28;20120;-80
2023/02/03 05:50:33;;;;;;;14.90;2.28;;;;;;;8.77;100.00;102266.22;5015442;28;20025;-80
2023/02/03 05:53:03;;;;;;;9.50;2.00;;;;;;;8.58;100.00;102251.63;5015302;28;20034;-80
2023/02/03 05:55:29;;;;;;;16.70;2.63;;;;;;;8.63;100.00;102271.88;5014917;28;20468;-80
2023/02/03 05:57:55;;;;;;;21.15;3.45;;;;;;;8.44;100.00;102259.09;5015338;28;20476;-81
2023/02/03 06:00:21;;;;;;;9.68;2.00;;;;;;;8.26;100.00;102248.03;5015007;28;20036;-80
2023/02/03 06:02:52;;;;;;;25.25;3.13;;;;;;;8.38;100.00;102272.00;5015203;28;20037;-80
2023/02/03 06:05:18;;;;;;;14.93;2.55;;;;;;;8.38;100.00;102277.34;5015165;28;20036;-80
2023/02/03 06:07:43;;;;;;;21.75;3.67;;;;;;;8.29;100.00;102254.00;4998550;28;20065;-80
2023/02/03 06:10:09;;;;;;;21.58;2.92;;;;;;;8.38;100.00;102272.00;5016241;28;20061;-82
2023/02/03 06:12:36;;;;;;;10.00;1.92;;;;;;;8.46;100.00;102273.22;4998755;28;20462;-79
2023/02/03 06:15:02;;;;;;;26.73;2.88;;;;;;;8.44;100.00;102270.69;5014626;28;20034;-83
2023/02/03 06:17:28;;;;;;;9.07;2.20;;;;;;;8.38;100.00;102258.59;5014913;28;20060;-80
2023/02/03 06:19:54;;;;;;;13.63;2.35;;;;;;;8.26;100.00;102267.66;5015798;28;20029;-83
2023/02/03 06:22:19;;;;;;;18.13;2.95;;;;;;;8.06;100.00;102265.69;5014210;28;20037;-82
2023/02/03 06:24:46;;;;;;;18.55;2.80;;;;;;;7.84;100.00;102266.56;5016069;28;20479;-83
2023/02/03 06:27:13;;;;;;;16.45;2.60;;;;;;;7.66;100.00;102266.16;4998793;28;20034;-82
2023/02/03 06:29:39;;;;;;;11.65;1.80;;;;;;;7.38;100.00;102254.94;5014765;28;20535;-82
2023/02/03 06:32:05;;;;;;;25.90;3.80;;;;;;;7.27;100.00;102255.75;5015281;28;20126;-82
2023/02/03 06:34:31;;;;;;;21.35;3.65;;;;;;;7.19;100.00;102265.34;5016946;28;20116;-80
2023/02/03 06:36:57;;;;;;;12.98;2.22;;;;;;;7.11;100.00;102270.41;4999756;28;20480;-80
2023/02/03 06:39:23;;;;;;;11.98;3.03;;;;;;;7.17;100.00;102275.28;5015956;28;20084;-80
2023/02/03 06:41:50;;;;;;;12.35;2.17;;;;;;;7.42;100.00;102272.44;5015891;28;20400;-80
2023/02/03 06:44:17;;;;;;;16.02;2.10;;;;;;;7.74;100.00;102284.31;5015478;28;20125;-80
2023/02/03 06:46:43;;;;;;;9.15;1.58;;;;;;;7.94;100.00;102283.63;4999096;28;20030;-81
2023/02/03 06:49:09;;;;;;;10.82;2.33;;;;;;;8.04;100.00;102278.34;5015611;28;20045;-80
2023/02/03 06:51:35;;;;;;;15.27;2.47;;;;;;;8.15;100.00;102289.09;5016016;28;20037;-81
2023/02/03 06:54:02;;;;;;;12.10;2.40;;;;;;;8.17;100.00;102295.16;4998217;28;20026;-80
2023/02/03 06:56:28;;;;;;;22.95;3.20;;;;;;;8.12;100.00;102297.34;4997611;28;20057;-81
2023/02/03 06:58:54;;;;;;;23.50;3.20;;;;;;;8.17;100.00;102305.88;5013179;28;20025;-80
2023/02/03 07:01:20;;;;;;;17.85;2.33;;;;;;;8.17;100.00;102305.03;5030350;28;20041;-79
2023/02/03 07:03:46;;;;;;;26.95;3.25;;;;;;;8.23;100.00;102300.03;5013335;28;20037;-81
2023/02/03 07:06:12;;;;;;;15.75;3.33;;;;;;;8.34;100.00;102312.59;5014962;28;20034;-81
2023/02/03 07:08:38;;;;;;;17.88;2.55;;;;;;;8.45;100.00;102307.25;5014776;28;20471;-81
2023/02/03 07:11:04;;;;;;;17.95;2.33;;;;;;;8.53;100.00;102307.47;5013844;28;20029;-81
2023/02/03 07:13:30;;;;;;;16.25;2.15;;;;;;;8.57;100.00;102303.56;4997105;28;20037;-81
2023/02/03 07:15:55;;;;;;;12.25;2.17;;;;;;;8.52;100.00;102299.53;4997586;28;20034;-81
2023/02/03 07:18:25;;;;;;;41.03;3.80;;;;;;;8.55;100.00;102307.34;5014835;28;20028;-80
2023/02/03 07:20:51;;;;;;;21.08;2.00;;;;;;;8.34;100.00;102275.91;5030014;28;20032;-82
2023/02/03 07:23:17;;;;;;;19.45;2.40;;;;;;;8.59;100.00;102319.50;5013644;28;20116;-81
2023/02/03 07:25:43;;;;;;;12.75;2.45;;;;;;;8.63;100.00;102328.19;4997473;28;20062;-81
2023/02/03 07:28:08;;;;;;;9.55;2.55;;;;;;;8.52;100.00;102318.31;4996833;28;20065;-81
2023/02/03 07:30:34;;;;;;;16.98;2.97;;;;;;;8.62;100.00;102332.66;5029619;28;20029;-80
2023/02/03 07:33:00;;;;;;;12.23;1.83;;;;;;;8.57;100.00;102334.88;4980878;28;20514;-81
2023/02/03 07:35:26;;;;;;;11.15;2.33;;;;;;;8.56;100.00;102335.84;5012920;28;20494;-80
2023/02/03 07:37:52;;;;;;;14.00;1.90;;;;;;;8.56;100.00;102344.75;5013068;28;20042;-80
2023/02/03 07:40:18;;;;;;;16.08;2.03;;;;;;;8.54;100.00;102340.47;5012961;28;20038;-79
2023/02/03 07:42:45;;;;;;;7.55;3.20;;;;;;;8.46;100.00;102342.94;5029691;28;20108;-81
2023/02/03 07:45:13;;;;;;;6.22;1.58;;;;;;;8.46;100.00;102349.13;4997030;28;20038;-80
2023/02/03 07:47:42;;;;;;;8.25;2.30;;;;;;;8.44;100.00;102355.59;4996690;28;20065;-81
2023/02/03 07:50:11;;;;;;;10.75;2.22;;;;;;;8.45;100.00;102363.53;5013118;28;20048;-79
2023/02/03 07:52:37;;;;;;;8.10;1.48;;;;;;;8.46;100.00;102359.88;5012710;28;20041;-81
2023/02/03 07:55:03;;;;;;;16.20;1.88;;;;;;;8.47;100.00;102366.09;4996573;28;20029;-80
2023/02/03 07:57:29;;;;;;;18.60;2.90;;;;;;;8.46;100.00;102367.91;5012894;28;20044;-81
2023/02/03 07:59:54;;;;;;;14.05;2.72;;;;;;;8.41;100.00;102358.53;5013056;28;20380;-78
2023/02/03 08:02:20;;;;;;;12.10;2.13;;;;;;;8.44;100.00;102366.31;4996790;28;20026;-81
2023/02/03 08:04:46;;;;;;;22.45;3.10;;;;;;;8.44;100.00;102372.56;5012702;28;20393;-78
2023/02/03 08:07:12;;;;;;;7.68;1.73;;;;;;;8.36;100.00;102367.78;5012609;28;20425;-78
2023/02/03 08:09:37;;;;;;;3.90;1.20;;;;;;;8.35;100.00;102370.56;5013981;28;20125;-79
2023/02/03 08:12:03;;;;;;;6.10;1.23;;;;;;;8.30;100.00;102354.00;5012649;28;20041;-78
2023/02/03 08:14:30;;;;;;;11.73;1.67;;;;;;;8.44;100.00;102375.25;5013677;28;20045;-80
2023/02/03 08:16:56;;;;;;;4.95;1.30;;;;;;;8.37;100.00;102365.94;5012758;28;20084;-78
2023/02/03 08:19:21;;;;;;;7.45;2.38;;;;;;;8.49;100.00;102374.84;5012972;28;20037;-80
2023/02/03 08:21:48;;;;;;;9.25;1.42;;;;;;;8.53;100.00;102376.31;4996149;28;20033;-81
2023/02/03 08:24:14;;;;;;;16.52;1.60;;;;;;;8.52;100.00;102372.78;5013175;28;20037;-80
2023/02/03 08:26:39;;;;;;;16.83;2.70;;;;;;;8.61;100.00;102384.59;5012643;28;20056;-79
2023/02/03 08:29:05;;;;;;;9.63;1.90;;;;;;;8.66;100.00;102401.19;5012400;28;20037;-80
2023/02/03 08:31:31;;;;;;;15.73;3.33;;;;;;;8.59;100.00;102394.59;5013456;28;20105;-80
2023/02/03 08:33:57;;;;;;;5.70;1.48;;;;;;;8.62;100.00;102404.22;4979852;28;20117;-79
2023/02/03 08:36:25;;;;;;;16.02;1.80;;;;;;;8.51;100.00;102397.03;4995540;28;20025;-82
2023/02/03 08:38:51;;;;;;;14.13;1.67;;;;;;;8.47;100.00;102387.53;4996486;28;20104;-82
2023/02/03 08:41:17;;;;;;;28.23;3.25;;;;;;;8.60;100.00;102420.44;4996172;28;20469;-81
2023/02/03 08:43:44;;;;;;;8.43;1.20;;;;;;;8.58;100.00;102422.38;5011994;28;20124;-81
2023/02/03 08:46:11;;;;;;;14.00;1.45;;;;;;;8.51;100.00;102416.66;4980012;28;20034;-81
2023/02/03 08:48:37;;;;;;;18.55;3.20;;;;;;;8.49;100.00;102413.22;5012067;28;20061;-80
2023/02/03 08:51:12;;;;;;;16.42;2.58;;;;;;;8.65;100.00;102423.59;5012043;28;20033;-82
2023/02/03 08:53:38;;;;;;;12.85;1.52;;;;;;;8.66;100.00;102419.94;5012080;28;20073;-81
2023/02/03 08:56:08;;;;;;;15.57;2.17;;;;;;;8.71;100.00;102420.44;4995817;28;20458;-81
2023/02/03 08:58:34;;;;;;;8.98;2.58;;;;;;;8.75;100.00;102418.34;4996088;28;20040;-81
2023/02/03 09:01:11;;;;;;;12.32;1.98;;;;;;;8.77;100.00;102417.25;4995985;28;20121;-81
2023/02/03 09:03:37;;;;;;;7.47;1.95;;;;;;;8.76;100.00;102415.56;4996184;28;20056;-81
2023/02/03 09:06:04;;;;;;;8.60;2.40;;;;;;;8.73;100.00;102406.88;4996119;28;20108;-81
2023/02/03 09:08:33;;;;;;;16.27;2.33;;;;;;;8.83;100.00;102418.59;5012142;28;20029;-81
2023/02/03 09:10:59;;;;;;;13.80;2.65;;;;;;;8.83;100.00;102426.63;5011632;28;20034;-81
2023/02/03 09:13:25;;;;;;;19.23;4.90;;;;;;;8.84;100.00;102433.72;4994154;28;20022;-80
2023/02/03 09:15:50;;;;;;;19.23;3.40;;;;;;;8.91;100.00;102440.28;4993921;28;20030;-81
2023/02/03 09:18:16;;;;;;;19.17;5.20;;;;;;;9.00;100.00;102444.91;4995269;28;20141;-81
2023/02/03 09:20:42;;;;;;;6.10;1.98;;;;;;;9.08;100.00;102460.41;5029334;28;20121;-81
2023/02/03 09:23:07;;;;;;;19.02;3.38;;;;;;;9.10;100.00;102462.94;5016669;28;20057;-81
2023/02/03 09:25:33;;;;;;;11.85;3.30;;;;;;;9.06;100.00;102456.13;4999412;28;20030;-81
2023/02/03 09:28:02;;;;;;;18.63;3.92;;;;;;;9.09;100.00;102455.88;5015617;28;20116;-81
2023/02/03 09:30:27;;;;;;;7.13;2.25;;;;;;;9.17;100.00;102462.31;4998929;28;20050;-80
2023/02/03 09:32:55;;;;;;;15.02;2.95;;;;;;;9.20;100.00;102464.75;4998616;28;20037;-80
2023/02/03 09:35:21;;;;;;;16.83;2.85;;;;;;;9.18;100.00;102452.44;5015311;28;20406;-81
2023/02/03 09:37:47;;;;;;;10.07;2.05;;;;;;;9.28;100.00;102452.53;5015603;28;20117;-81
2023/02/03 09:40:46;;;;;;;5.90;1.52;;;;;;;9.27;100.00;102440.09;5014560;28;20054;-81
2023/02/03 09:43:38;;;;;;;8.20;1.58;;;;;;;9.52;100.00;102458.56;4993385;28;20064;-81
2023/02/03 09:46:14;;;;;;;2.67;1.33;;;;;;;9.67;100.00;102459.97;5015243;28;20033;-81
2023/02/03 09:48:48;;;;;;;5.38;1.85;;;;;;;9.86;100.00;102464.66;4999226;28;20050;-80
2023/02/03 09:51:24;;;;;;;6.57;2.15;;;;;;;10.04;100.00;102470.31;4999301;28;20540;-81
2023/02/03 09:53:56;;;;;;;9.95;2.95;;;;;;;10.11;100.00;102458.06;4982649;28;20026;-81
2023/02/03 09:56:34;;;;;;;14.98;4.60;;;;;;;9.97;100.00;102438.72;5014896;28;20492;-78
2023/02/03 09:59:00;;;;;;;5.30;1.48;;;;;;;10.18;100.00;102465.59;4982677;28;20042;-81
2023/02/03 10:01:33;;;;;;;19.30;2.35;;;;;;;10.34;100.00;102477.59;4982681;28;20034;-79
2023/02/03 10:04:01;;;;;;;14.23;3.38;;;;;;;10.45;100.00;102478.50;4998970;28;20484;-80
2023/02/03 10:06:43;;;;;;;14.27;2.50;;;;;;;10.52;100.00;102464.41;5031287;28;20483;-81
2023/02/03 10:09:24;;;;;;;13.00;2.67;;;;;;;10.52;100.00;102475.16;5015108;28;20042;-81
2023/02/03 10:12:00;;;;;;;5.30;2.55;;;;;;;10.35;100.00;102478.47;4998892;28;20038;-81
2023/02/03 10:14:55;;;;;;;9.15;2.67;;;;;;;10.38;100.00;102480.91;5031334;28;20506;-81
2023/02/03 10:17:39;;;;;;;7.53;2.05;;;;;;;10.75;100.00;102481.22;5014584;28;20144;-80
2023/02/03 10:20:08;;;;;;;;;;;;;;;10.59;100.00;102480.88;5014854;28;20068;-81
2023/02/03 10:22:40;;;;;;;16.05;3.97;;;;;;;10.69;100.00;102488.97;4998629;28;19916;-81
2023/02/03 10:25:11;;;;;;;5.93;1.95;;;;;;;12.65;100.00;102476.41;4982283;28;20096;-81
2023/02/03 10:27:39;;;;;;;9.10;2.25;;;;;;;14.40;100.00;102475.16;5014457;28;20045;-81
2023/02/03 10:30:21;;;;;;;12.57;3.13;;;;;;;15.46;100.00;102487.53;4982026;28;20495;-80
2023/02/03 10:33:10;;;;;;;10.30;2.63;;;;;;;17.00;96.58;102477.59;4997242;28;20061;-81
2023/02/03 10:35:59;;;;;;;4.75;2.08;;;;;;;18.22;90.21;102477.81;4995050;28;20038;-81
2023/02/03 10:38:27;;;;;;;9.27;1.80;;;;;;;18.72;85.24;102478.16;5028359;28;20046;-82
2023/02/03 10:40:53;;;;;;;13.27;3.30;;;;;;;16.16;95.40;102478.97;5030797;28;20088;-81
2023/02/03 10:46:03;;;;;;;7.38;2.35;;;;;;;14.16;100.00;102483.13;5000553;28;20484;-81
2023/02/03 10:48:29;;;;;;;13.15;4.18;;;;;;;14.73;100.00;102487.06;5015362;28;20065;-80
2023/02/03 10:50:56;;;;;;;14.77;6.05;;;;;;;13.53;100.00;102476.81;5015420;28;20109;-80
2023/02/03 10:53:35;;;;;;;5.25;2.47;;;;;;;12.97;100.00;102480.53;4997417;28;20168;-81
2023/02/03 10:56:10;;;;;;;18.90;10.85;;;;;;;13.01;100.00;102487.31;5013951;28;20373;-80
2023/02/03 10:58:37;;;;;;;6.57;4.22;;;;;;;12.82;100.00;102490.13;4981679;28;20148;-81
2023/02/03 11:01:14;;;;;;;24.73;11.63;;;;;;;14.04;100.00;102491.47;5013874;28;20484;-81
2023/02/03 11:04:00;;;;;;;10.40;2.83;;;;;;;14.62;100.00;102486.50;4997832;28;20030;-82
2023/02/03 11:06:26;;;;;;;15.13;4.15;;;;;;;14.65;100.00;102492.44;4997668;28;20489;-81
2023/02/03 11:08:52;;;;;;;17.48;6.75;;;;;;;15.60;100.00;102493.13;5013701;28;20085;-81
2023/02/03 11:11:24;;;;;;;5.75;2.45;;;;;;;14.47;100.00;102497.91;4998076;28;20443;-82
2023/02/03 11:14:02;;;;;;;4.85;2.17;;;;;;;13.63;100.00;102495.66;5014654;28;20026;-80
2023/02/03 11:16:28;;;;;;;16.40;3.13;;;;;;;15.13;100.00;102492.81;5029799;28;20424;-80
2023/02/03 11:18:55;;;;;;;4.28;2.03;;;;;;;16.24;97.59;102498.78;4997607;28;20036;-82
2023/02/03 11:21:36;;;;;;;6.93;2.70;;;;;;;15.70;97.99;102513.88;5013050;28;20026;-81
2023/02/03 11:24:23;;;;;;;6.32;1.73;;;;;;;15.52;97.29;102509.38;5014590;28;20033;-81
2023/02/03 11:27:05;;;;;;;4.10;1.33;;;;;;;14.45;99.52;102505.31;5013274;28;20038;-82
2023/02/03 11:29:37;;;;;;;11.65;2.00;;;;;;;13.63;100.00;102520.00;5013736;28;20106;-82
2023/02/03 11:32:12;;;;;;;7.72;1.52;;;;;;;13.14;100.00;102471.59;4997187;28;20392;-81